| time (UTC) | temp C | wind direction | speed KPH | gust KPH | rain 1hr cm | rain 24hr cm | rain mn cm | humidity % | barometer mb |
| 20260510045141 | 16 | 189 | 6.4 | 9.7 | 0.18 | 0.41 | 0.41 | 94 | 1012.5 |
| 20260510044637 | 16 | 124 | 6.4 | 11.3 | 0.48 | 0.41 | 0.41 | 94 | 1012.9 |
| 20260510044135 | 16 | 129 | 9.7 | 12.9 | 0.71 | 0.38 | 0.38 | 92 | 1014.0 |
| 20260510043630 | 17 | 235 | 4.8 | 4.8 | 0.89 | 0.33 | 0.33 | 90 | 1014.3 |
| 20260510043127 | 17 | 90 | 8.0 | 14.5 | 0.79 | 0.25 | 0.25 | 87 | 1014.5 |
| 20260510042625 | 18 | 292 | 14.5 | 17.7 | 0.61 | 0.18 | 0.18 | 84 | 1014.6 |
| 20260510042120 | 18 | 207 | 11.3 | 16.1 | 0.48 | 0.13 | 0.13 | 81 | 1014.6 |
| 20260510041618 | 18 | 245 | 6.4 | 9.7 | 0.30 | 0.08 | 0.08 | 80 | 1014.4 |
| 20260510041114 | 20 | 212 | 1.6 | 1.6 | 0.13 | 0.05 | 0.05 | 75 | 1013.8 |
| 20260510040611 | 21 | 238 | 8.0 | 16.1 | 0.00 | 0.03 | 0.03 | 65 | 1013.8 |
| 20260510040108 | 21 | 260 | 4.8 | 4.8 | 0.00 | 0.03 | 0.03 | 58 | 1013.2 |
| 20260510035603 | 22 | 262 | 1.6 | 3.2 | 0.00 | 0.03 | 0.03 | 58 | 1012.1 |
| 20260510035058 | 22 | 217 | 3.2 | 3.2 | 0.00 | 0.03 | 0.03 | 55 | 1011.3 |
| 20260510034556 | 22 | 99 | 8.0 | 9.7 | 0.00 | 0.03 | 0.03 | 54 | 1010.7 |
| 20260510034053 | 22 | 195 | 3.2 | 3.2 | 0.00 | 0.03 | 0.03 | 53 | 1010.2 |
| 20260510033549 | 23 | 114 | 3.2 | 9.7 | 0.00 | 0.03 | 0.03 | 52 | 1009.8 |
| 20260510033047 | 23 | 153 | 1.6 | 4.8 | 0.00 | 0.03 | 0.03 | 52 | 1009.3 |
| 20260510032543 | 22 | 190 | 6.4 | 11.3 | 0.00 | 0.03 | 0.03 | 52 | 1009.2 |
| 20260510032038 | 22 | 168 | 3.2 | 4.8 | 0.00 | 0.03 | 0.03 | 55 | 1009.4 |
| 20260510031528 | 22 | 149 | 6.4 | 9.7 | 0.00 | 0.03 | 0.03 | 55 | 1009.1 |
| 20260510031024 | 22 | 212 | 0.0 | 1.6 | 0.00 | 0.03 | 0.03 | 57 | 1009.3 |
| 20260510030520 | 22 | 132 | 4.8 | 9.7 | 0.00 | 0.03 | 0.03 | 57 | 1009.3 |
| 20260510030017 | 22 | 100 | 3.2 | 4.8 | 0.00 | 0.03 | 0.03 | 57 | 1009.4 |
| 20260510025514 | 22 | 201 | 3.2 | 4.8 | 0.00 | 0.03 | 0.03 | 56 | 1009.6 |
| 20260510025011 | 22 | 207 | 0.0 | 0.0 | 0.00 | 0.03 | 0.03 | 57 | 1009.7 |
| 20260510024503 | 22 | 203 | 0.0 | 1.6 | 0.00 | 0.03 | 0.03 | 57 | 1009.5 |
| 20260510023958 | 22 | 199 | 0.0 | 1.6 | 0.00 | 0.03 | 0.03 | 58 | 1009.7 |
| 20260510023454 | 22 | 206 | 0.0 | 0.0 | 0.00 | 0.03 | 0.03 | 59 | 1009.8 |
| 20260510022952 | 22 | 200 | 1.6 | 3.2 | 0.00 | 0.03 | 0.03 | 57 | 1009.7 |
| 20260510022450 | 22 | 181 | 3.2 | 4.8 | 0.00 | 0.03 | 0.03 | 57 | 1009.3 |
| 20260510021949 | 22 | 205 | 0.0 | 0.0 | 0.00 | 0.03 | 0.03 | 58 | 1009.4 |
| 20260510021447 | 22 | 204 | 0.0 | 0.0 | 0.00 | 0.03 | 0.03 | 57 | 1009.0 |
| 20260510020944 | 22 | 211 | 0.0 | 0.0 | 0.00 | 0.03 | 0.03 | 58 | 1009.0 |
| 20260510020439 | 22 | 185 | 0.0 | 1.6 | 0.00 | 0.03 | 0.03 | 57 | 1008.5 |
| 20260510015935 | 22 | 211 | 0.0 | 0.0 | 0.00 | 0.03 | 0.03 | 57 | 1008.4 |
| 20260510015431 | 22 | 211 | 0.0 | 0.0 | 0.00 | 0.03 | 0.03 | 57 | 1008.3 |
| 20260510014926 | 22 | 210 | 0.0 | 0.0 | 0.00 | 0.03 | 0.03 | 57 | 1007.8 |
| 20260510014424 | 22 | 208 | 0.0 | 0.0 | 0.00 | 0.03 | 0.03 | 57 | 1007.9 |
| 20260510013920 | 22 | 210 | 0.0 | 0.0 | 0.00 | 0.03 | 0.03 | 58 | 1007.9 |
| 20260510013415 | 22 | 207 | 0.0 | 0.0 | 0.00 | 0.03 | 0.03 | 58 | 1007.9 |
| 20260510012911 | 23 | 210 | 0.0 | 0.0 | 0.00 | 0.03 | 0.03 | 57 | 1007.9 |
| 20260510012406 | 23 | 205 | 0.0 | 0.0 | 0.00 | 0.03 | 0.03 | 57 | 1007.8 |
| 20260510011901 | 23 | 205 | 0.0 | 0.0 | 0.00 | 0.03 | 0.03 | 57 | 1007.7 |
| 20260510011356 | 23 | 206 | 0.0 | 0.0 | 0.00 | 0.03 | 0.03 | 56 | 1007.4 |
| 20260510010852 | 23 | 207 | 0.0 | 0.0 | 0.00 | 0.03 | 0.03 | 56 | 1007.6 |
| 20260510010350 | 23 | 204 | 0.0 | 0.0 | 0.00 | 0.03 | 0.03 | 56 | 1007.6 |
| 20260510005846 | 23 | 208 | 0.0 | 0.0 | 0.00 | 0.03 | 0.03 | 54 | 1007.8 |
| 20260510005343 | 24 | 200 | 0.0 | 1.6 | 0.00 | 0.03 | 0.03 | 53 | 1007.8 |
| 20260510004840 | 25 | 208 | 0.0 | 0.0 | 0.00 | 0.03 | 0.03 | 52 | 1007.9 |
| 20260510004338 | 25 | 208 | 0.0 | 0.0 | 0.00 | 0.03 | 0.03 | 51 | 1007.8 |
| 20260510003836 | 25 | 205 | 0.0 | 0.0 | 0.00 | 0.03 | 0.03 | 50 | 1007.7 |
| 20260510003332 | 25 | 198 | 1.6 | 3.2 | 0.00 | 0.03 | 0.03 | 49 | 1007.4 |
| 20260510002830 | 25 | 206 | 0.0 | 0.0 | 0.00 | 0.03 | 0.03 | 48 | 1007.6 |
| 20260510002328 | 25 | 212 | 0.0 | 0.0 | 0.00 | 0.03 | 0.03 | 47 | 1007.8 |
| 20260510001825 | 26 | 208 | 0.0 | 0.0 | 0.00 | 0.03 | 0.03 | 47 | 1007.8 |
| 20260510001323 | 26 | 207 | 0.0 | 0.0 | 0.00 | 0.03 | 0.03 | 47 | 1007.8 |
| 20260510000819 | 26 | 210 | 0.0 | 0.0 | 0.00 | 0.03 | 0.03 | 47 | 1007.8 |
| 20260510000318 | 26 | 212 | 0.0 | 0.0 | 0.00 | 0.03 | 0.03 | 46 | 1007.8 |
| 20260509235813 | 26 | 203 | 0.0 | 0.0 | 0.00 | 0.03 | 0.03 | 46 | 1007.7 |
| 20260509235310 | 27 | 199 | 1.6 | 3.2 | 0.00 | 0.03 | 0.03 | 47 | 1007.8 |
| 20260509234806 | 27 | 189 | 1.6 | 4.8 | 0.00 | 0.03 | 0.03 | 44 | 1007.8 |
| 20260509234302 | 28 | 191 | 3.2 | 4.8 | 0.00 | 0.03 | 0.03 | 44 | 1007.9 |
| 20260509233801 | 28 | 207 | 0.0 | 1.6 | 0.00 | 0.03 | 0.03 | 44 | 1007.8 |
| 20260509233257 | 28 | 198 | 1.6 | 1.6 | 0.00 | 0.03 | 0.03 | 44 | 1007.9 |
| 20260509232753 | 28 | 205 | 3.2 | 3.2 | 0.00 | 0.03 | 0.03 | 45 | 1007.8 |
| 20260509232251 | 28 | 207 | 0.0 | 0.0 | 0.00 | 0.03 | 0.03 | 43 | 1007.9 |
| 20260509231747 | 28 | 216 | 3.2 | 4.8 | 0.00 | 0.03 | 0.03 | 41 | 1008.1 |
| 20260509231244 | 28 | 204 | 0.0 | 1.6 | 0.00 | 0.03 | 0.03 | 39 | 1008.2 |
| 20260509230741 | 28 | 78 | 3.2 | 4.8 | 0.00 | 0.03 | 0.03 | 38 | 1007.9 |
| 20260509230238 | 28 | 191 | 1.6 | 3.2 | 0.00 | 0.03 | 0.03 | 38 | 1008.1 |
| 20260509225733 | 28 | 112 | 3.2 | 4.8 | 0.00 | 0.03 | 0.03 | 35 | 1008.3 |
| 20260509225229 | 29 | 211 | 0.0 | 1.6 | 0.00 | 0.03 | 0.03 | 37 | 1008.2 |
| 20260509224725 | 29 | 193 | 6.4 | 11.3 | 0.00 | 0.03 | 0.03 | 35 | 1008.4 |
| 20260509224223 | 29 | 207 | 4.8 | 6.4 | 0.00 | 0.03 | 0.03 | 33 | 1008.7 |
| 20260509223719 | 29 | 209 | 0.0 | 0.0 | 0.00 | 0.03 | 0.03 | 34 | 1008.6 |
| 20260509223217 | 29 | 214 | 1.6 | 1.6 | 0.00 | 0.03 | 0.03 | 33 | 1008.7 |
| 20260509222713 | 30 | 211 | 0.0 | 0.0 | 0.00 | 0.03 | 0.03 | 32 | 1008.7 |
| 20260509222209 | 30 | 208 | 1.6 | 1.6 | 0.00 | 0.03 | 0.03 | 33 | 1008.7 |
| 20260509221705 | 30 | 211 | 0.0 | 0.0 | 0.00 | 0.03 | 0.03 | 33 | 1009.0 |
| 20260509221201 | 30 | 214 | 0.0 | 0.0 | 0.00 | 0.03 | 0.03 | 33 | 1008.8 |
| 20260509220657 | 30 | 208 | 1.6 | 1.6 | 0.00 | 0.03 | 0.03 | 33 | 1008.8 |
| 20260509220154 | 30 | 176 | 4.8 | 4.8 | 0.00 | 0.03 | 0.03 | 33 | 1008.8 |
| 20260509215650 | 30 | 200 | 1.6 | 1.6 | 0.00 | 0.03 | 0.03 | 33 | 1008.7 |
| 20260509215147 | 30 | 222 | 3.2 | 4.8 | 0.00 | 0.03 | 0.03 | 32 | 1008.8 |
| 20260509214644 | 30 | 218 | 1.6 | 1.6 | 0.00 | 0.03 | 0.03 | 31 | 1008.7 |
| 20260509214141 | 30 | 209 | 1.6 | 1.6 | 0.00 | 0.03 | 0.03 | 31 | 1008.8 |
| 20260509213638 | 30 | 195 | 1.6 | 1.6 | 0.00 | 0.03 | 0.03 | 31 | 1008.8 |
| 20260509213133 | 30 | 200 | 3.2 | 6.4 | 0.00 | 0.03 | 0.03 | 31 | 1008.8 |
| 20260509212631 | 30 | 206 | 3.2 | 3.2 | 0.00 | 0.03 | 0.03 | 33 | 1008.8 |
| 20260509212127 | 30 | 196 | 4.8 | 4.8 | 0.00 | 0.03 | 0.03 | 30 | 1009.0 |
| 20260509211624 | 29 | 213 | 1.6 | 3.2 | 0.00 | 0.03 | 0.03 | 33 | 1009.1 |
| 20260509211120 | 30 | 13 | 4.8 | 6.4 | 0.00 | 0.03 | 0.03 | 31 | 1009.1 |
| 20260509210617 | 30 | 201 | 3.2 | 3.2 | 0.00 | 0.03 | 0.03 | 33 | 1009.1 |
| 20260509210114 | 30 | 207 | 0.0 | 0.0 | 0.00 | 0.03 | 0.03 | 35 | 1009.3 |
| 20260509205608 | 30 | 213 | 0.0 | 0.0 | 0.00 | 0.03 | 0.03 | 34 | 1009.4 |
| 20260509205103 | 30 | 214 | 0.0 | 1.6 | 0.00 | 0.03 | 0.03 | 34 | 1009.2 |
| 20260509204600 | 30 | 207 | 1.6 | 4.8 | 0.00 | 0.03 | 0.03 | 37 | 1009.3 |
| 20260509204056 | 30 | 215 | 0.0 | 1.6 | 0.00 | 0.03 | 0.03 | 39 | 1009.4 |
| 20260509203546 | 30 | 209 | 1.6 | 1.6 | 0.00 | 0.03 | 0.03 | 39 | 1009.3 |
| 20260509203044 | 30 | 236 | 1.6 | 3.2 | 0.00 | 0.03 | 0.03 | 39 | 1009.3 |
| 20260509202539 | 29 | 208 | 0.0 | 0.0 | 0.00 | 0.03 | 0.03 | 38 | 1009.3 |
| 20260509202035 | 28 | 209 | 4.8 | 6.4 | 0.00 | 0.03 | 0.03 | 37 | 1009.6 |
| 20260509201530 | 30 | 148 | 4.8 | 6.4 | 0.00 | 0.03 | 0.03 | 39 | 1009.6 |
| 20260509201027 | 30 | 219 | 3.2 | 4.8 | 0.00 | 0.03 | 0.03 | 39 | 1009.6 |
| 20260509200521 | 30 | 218 | 6.4 | 6.4 | 0.00 | 0.03 | 0.03 | 36 | 1009.7 |
| 20260509200018 | 30 | 202 | 1.6 | 1.6 | 0.00 | 0.03 | 0.03 | 37 | 1009.8 |
| 20260509195513 | 30 | 215 | 1.6 | 1.6 | 0.00 | 0.03 | 0.03 | 36 | 1009.7 |
| 20260509195008 | 30 | 227 | 1.6 | 3.2 | 0.00 | 0.03 | 0.03 | 37 | 1009.9 |
| 20260509194503 | 30 | 228 | 3.2 | 3.2 | 0.00 | 0.03 | 0.03 | 35 | 1010.0 |
| 20260509194000 | 30 | 210 | 0.0 | 1.6 | 0.00 | 0.03 | 0.03 | 36 | 1010.0 |
| 20260509193455 | 28 | 211 | 0.0 | 1.6 | 0.00 | 0.03 | 0.03 | 40 | 1010.1 |
| 20260509192951 | 29 | 191 | 4.8 | 4.8 | 0.00 | 0.03 | 0.03 | 38 | 1010.4 |
| 20260509192448 | 29 | 203 | 0.0 | 0.0 | 0.00 | 0.03 | 0.03 | 38 | 1010.1 |
| 20260509191943 | 30 | 210 | 1.6 | 3.2 | 0.00 | 0.03 | 0.03 | 36 | 1010.2 |
| 20260509191438 | 28 | 205 | 1.6 | 1.6 | 0.00 | 0.03 | 0.03 | 37 | 1010.4 |
| 20260509190934 | 28 | 210 | 0.0 | 1.6 | 0.00 | 0.03 | 0.03 | 38 | 1010.2 |
| 20260509190432 | 28 | 210 | 1.6 | 1.6 | 0.00 | 0.03 | 0.03 | 40 | 1010.4 |
| 20260509185930 | 28 | 227 | 0.0 | 1.6 | 0.00 | 0.03 | 0.03 | 42 | 1010.4 |
| 20260509185427 | 28 | 204 | 0.0 | 0.0 | 0.00 | 0.03 | 0.03 | 42 | 1010.5 |
| 20260509184923 | 28 | 179 | 4.8 | 4.8 | 0.00 | 0.03 | 0.03 | 44 | 1010.6 |
| 20260509184421 | 28 | 203 | 6.4 | 9.7 | 0.00 | 0.03 | 0.03 | 43 | 1010.6 |
| 20260509183917 | 28 | 214 | 3.2 | 4.8 | 0.00 | 0.03 | 0.03 | 43 | 1010.4 |
| 20260509183411 | 28 | 206 | 1.6 | 1.6 | 0.00 | 0.03 | 0.03 | 44 | 1010.8 |
| 20260509182908 | 28 | 204 | 4.8 | 4.8 | 0.00 | 0.03 | 0.03 | 46 | 1010.7 |
| 20260509182404 | 27 | 214 | 0.0 | 0.0 | 0.00 | 0.03 | 0.03 | 40 | 1010.7 |
| 20260509181902 | 27 | 207 | 1.6 | 3.2 | 0.00 | 0.03 | 0.03 | 43 | 1010.9 |
| 20260509181359 | 27 | 211 | 0.0 | 0.0 | 0.00 | 0.03 | 0.03 | 45 | 1010.9 |
| 20260509180856 | 28 | 265 | 3.2 | 4.8 | 0.00 | 0.03 | 0.03 | 46 | 1010.8 |
| 20260509180346 | 27 | 222 | 0.0 | 1.6 | 0.00 | 0.03 | 0.03 | 45 | 1011.2 |
| 20260509175844 | 27 | 218 | 3.2 | 3.2 | 0.00 | 0.03 | 0.03 | 45 | 1011.2 |
| 20260509175339 | 27 | 215 | 0.0 | 0.0 | 0.00 | 0.03 | 0.03 | 45 | 1011.2 |
| 20260509174835 | 27 | 197 | 0.0 | 1.6 | 0.00 | 0.03 | 0.03 | 45 | 1011.4 |
| 20260509174331 | 28 | 216 | 0.0 | 0.0 | 0.00 | 0.03 | 0.03 | 41 | 1011.6 |
| 20260509173827 | 27 | 215 | 0.0 | 1.6 | 0.00 | 0.03 | 0.03 | 38 | 1011.5 |
| 20260509173323 | 27 | 203 | 0.0 | 1.6 | 0.00 | 0.03 | 0.03 | 42 | 1011.6 |
| 20260509172819 | 26 | 216 | 0.0 | 0.0 | 0.00 | 0.03 | 0.03 | 42 | 1011.4 |
| 20260509172317 | 27 | 216 | 0.0 | 0.0 | 0.00 | 0.03 | 0.03 | 44 | 1011.6 |
| 20260509171813 | 27 | 210 | 1.6 | 1.6 | 0.00 | 0.03 | 0.03 | 48 | 1011.5 |
| 20260509171308 | 26 | 212 | 0.0 | 0.0 | 0.00 | 0.03 | 0.03 | 50 | 1011.5 |
| 20260509170804 | 26 | 211 | 0.0 | 1.6 | 0.00 | 0.03 | 0.03 | 51 | 1011.6 |
| 20260509170300 | 26 | 218 | 3.2 | 4.8 | 0.00 | 0.03 | 0.03 | 55 | 1011.7 |
| 20260509165800 | 25 | 195 | 1.6 | 1.6 | 0.00 | 0.03 | 0.03 | 58 | 1011.5 |
| 20260509165255 | 26 | 186 | 1.6 | 3.2 | 0.00 | 0.03 | 0.03 | 55 | 1011.7 |
| 20260509164751 | 25 | 181 | 3.2 | 4.8 | 0.00 | 0.03 | 0.03 | 57 | 1011.7 |
| 20260509164247 | 25 | 159 | 1.6 | 6.4 | 0.00 | 0.03 | 0.03 | 57 | 1011.9 |
| 20260509163745 | 25 | 208 | 1.6 | 1.6 | 0.00 | 0.03 | 0.03 | 59 | 1011.7 |
| 20260509163240 | 25 | 221 | 0.0 | 1.6 | 0.00 | 0.03 | 0.03 | 57 | 1012.0 |
| 20260509162739 | 25 | 206 | 0.0 | 0.0 | 0.00 | 0.03 | 0.03 | 63 | 1012.1 |
| 20260509162233 | 23 | 207 | 0.0 | 0.0 | 0.00 | 0.03 | 0.03 | 66 | 1012.0 |
| 20260509161729 | 23 | 202 | 0.0 | 0.0 | 0.00 | 0.03 | 0.03 | 64 | 1012.0 |
| 20260509161226 | 24 | 203 | 0.0 | 0.0 | 0.00 | 0.03 | 0.03 | 63 | 1011.9 |
| 20260509160721 | 24 | 200 | 3.2 | 3.2 | 0.00 | 0.03 | 0.03 | 65 | 1012.0 |
| 20260509160218 | 23 | 214 | 1.6 | 3.2 | 0.00 | 0.03 | 0.03 | 69 | 1011.8 |
| 20260509155713 | 22 | 205 | 1.6 | 1.6 | 0.00 | 0.03 | 0.03 | 75 | 1011.9 |
| 20260509155210 | 22 | 213 | 0.0 | 0.0 | 0.00 | 0.03 | 0.03 | 79 | 1011.9 |
| 20260509154706 | 22 | 211 | 0.0 | 0.0 | 0.00 | 0.03 | 0.03 | 83 | 1011.5 |
| 20260509154203 | 22 | 213 | 0.0 | 1.6 | 0.00 | 0.03 | 0.03 | 80 | 1011.6 |
| 20260509153700 | 22 | 214 | 0.0 | 0.0 | 0.00 | 0.03 | 0.03 | 81 | 1011.7 |
| 20260509153156 | 22 | 200 | 0.0 | 1.6 | 0.00 | 0.03 | 0.03 | 81 | 1011.8 |
| 20260509152652 | 22 | 211 | 0.0 | 0.0 | 0.00 | 0.03 | 0.03 | 79 | 1011.8 |
| 20260509152149 | 22 | 207 | 0.0 | 0.0 | 0.00 | 0.03 | 0.03 | 81 | 1011.7 |
| 20260509151646 | 22 | 208 | 0.0 | 0.0 | 0.00 | 0.03 | 0.03 | 81 | 1011.6 |
| 20260509151143 | 22 | 204 | 1.6 | 1.6 | 0.00 | 0.03 | 0.03 | 80 | 1011.9 |
| 20260509150641 | 22 | 203 | 0.0 | 1.6 | 0.00 | 0.03 | 0.03 | 80 | 1011.7 |
| 20260509150139 | 22 | 211 | 0.0 | 0.0 | 0.00 | 0.03 | 0.03 | 80 | 1011.6 |
| 20260509145635 | 21 | 188 | 3.2 | 4.8 | 0.00 | 0.03 | 0.03 | 81 | 1011.4 |
| 20260509145131 | 21 | 206 | 1.6 | 3.2 | 0.00 | 0.03 | 0.03 | 84 | 1011.5 |
| 20260509144627 | 21 | 185 | 1.6 | 3.2 | 0.00 | 0.03 | 0.03 | 84 | 1011.6 |
| 20260509144124 | 21 | 202 | 1.6 | 3.2 | 0.00 | 0.03 | 0.03 | 84 | 1011.6 |
| 20260509143622 | 20 | 213 | 0.0 | 0.0 | 0.00 | 0.03 | 0.03 | 86 | 1011.5 |
| 20260509143119 | 20 | 216 | 0.0 | 0.0 | 0.00 | 0.03 | 0.03 | 88 | 1011.7 |
| 20260509142614 | 19 | 214 | 1.6 | 1.6 | 0.00 | 0.03 | 0.03 | 91 | 1011.7 |
| 20260509142111 | 18 | 220 | 0.0 | 0.0 | 0.00 | 0.03 | 0.03 | 94 | 1011.8 |
| 20260509141607 | 18 | 220 | 1.6 | 1.6 | 0.00 | 0.03 | 0.03 | 95 | 1011.8 |
| 20260509141103 | 17 | 212 | 0.0 | 0.0 | 0.00 | 0.03 | 0.03 | 96 | 1011.8 |
| 20260509140601 | 17 | 212 | 0.0 | 0.0 | 0.00 | 0.03 | 0.03 | 99 | 1011.6 |
| 20260509140058 | 17 | 212 | 0.0 | 0.0 | 0.00 | 0.03 | 0.03 | 99 | 1011.6 |
| 20260509135555 | 17 | 210 | 0.0 | 0.0 | 0.00 | 0.03 | 0.03 | 99 | 1011.5 |
| 20260509135053 | 17 | 209 | 1.6 | 1.6 | 0.00 | 0.03 | 0.03 | 99 | 1011.5 |
| 20260509134550 | 17 | 212 | 0.0 | 0.0 | 0.00 | 0.03 | 0.03 | 99 | 1011.4 |
| 20260509134047 | 16 | 212 | 0.0 | 0.0 | 0.00 | 0.03 | 0.03 | 99 | 1011.3 |
| 20260509133544 | 16 | 210 | 0.0 | 0.0 | 0.00 | 0.03 | 0.03 | 99 | 1011.0 |
| 20260509133041 | 16 | 210 | 0.0 | 0.0 | 0.00 | 0.03 | 0.03 | 99 | 1011.4 |
| 20260509132539 | 16 | 210 | 0.0 | 0.0 | 0.00 | 0.03 | 0.03 | 99 | 1011.2 |
| 20260509132037 | 15 | 209 | 0.0 | 0.0 | 0.00 | 0.03 | 0.03 | 99 | 1011.4 |
| 20260509131528 | 15 | 209 | 0.0 | 0.0 | 0.00 | 0.03 | 0.03 | 99 | 1011.2 |
| 20260509131025 | 15 | 209 | 3.2 | 3.2 | 0.00 | 0.03 | 0.03 | 99 | 1011.5 |
| 20260509130520 | 15 | 211 | 1.6 | 1.6 | 0.00 | 0.03 | 0.03 | 99 | 1011.2 |
| 20260509130017 | 15 | 212 | 0.0 | 0.0 | 0.00 | 0.03 | 0.03 | 99 | 1010.9 |
| 20260509125514 | 15 | 212 | 0.0 | 0.0 | 0.00 | 0.03 | 0.03 | 99 | 1010.7 |
| 20260509125010 | 15 | 212 | 0.0 | 0.0 | 0.00 | 0.03 | 0.03 | 99 | 1010.8 |
| 20260509124507 | 14 | 212 | 0.0 | 0.0 | 0.00 | 0.03 | 0.03 | 99 | 1010.8 |
| 20260509124004 | 14 | 212 | 0.0 | 0.0 | 0.00 | 0.03 | 0.03 | 99 | 1010.7 |
| 20260509123502 | 13 | 214 | 0.0 | 0.0 | 0.00 | 0.03 | 0.03 | 99 | 1010.7 |
| 20260509122958 | 13 | 214 | 0.0 | 0.0 | 0.00 | 0.03 | 0.03 | 99 | 1010.6 |
| 20260509122455 | 13 | 214 | 0.0 | 0.0 | 0.00 | 0.03 | 0.03 | 99 | 1010.5 |
| 20260509121952 | 13 | 214 | 0.0 | 0.0 | 0.00 | 0.03 | 0.03 | 99 | 1010.6 |
| 20260509121448 | 13 | 214 | 0.0 | 0.0 | 0.00 | 0.03 | 0.03 | 99 | 1010.7 |
| 20260509120946 | 13 | 214 | 0.0 | 0.0 | 0.00 | 0.03 | 0.03 | 99 | 1010.4 |
| 20260509120444 | 13 | 214 | 0.0 | 0.0 | 0.00 | 0.03 | 0.03 | 99 | 1010.2 |
| 20260509115942 | 12 | 215 | 0.0 | 0.0 | 0.00 | 0.03 | 0.03 | 99 | 1010.3 |
| 20260509115439 | 12 | 214 | 0.0 | 0.0 | 0.00 | 0.03 | 0.03 | 99 | 1010.2 |
| 20260509114936 | 12 | 215 | 0.0 | 0.0 | 0.00 | 0.03 | 0.03 | 99 | 1010.3 |
| 20260509114435 | 12 | 215 | 0.0 | 0.0 | 0.00 | 0.03 | 0.03 | 99 | 1010.1 |
| 20260509113934 | 12 | 214 | 0.0 | 0.0 | 0.00 | 0.03 | 0.03 | 99 | 1010.2 |
| 20260509113431 | 12 | 214 | 0.0 | 0.0 | 0.00 | 0.03 | 0.03 | 99 | 1009.8 |
| 20260509112927 | 12 | 214 | 0.0 | 0.0 | 0.00 | 0.03 | 0.03 | 99 | 1010.0 |
| 20260509112425 | 13 | 214 | 0.0 | 0.0 | 0.00 | 0.03 | 0.03 | 99 | 1009.9 |
| 20260509111921 | 13 | 214 | 0.0 | 0.0 | 0.00 | 0.03 | 0.03 | 99 | 1009.6 |
| 20260509111419 | 13 | 214 | 0.0 | 0.0 | 0.00 | 0.03 | 0.03 | 99 | 1009.9 |
| 20260509110916 | 13 | 214 | 0.0 | 0.0 | 0.00 | 0.03 | 0.03 | 99 | 1009.7 |
| 20260509110412 | 13 | 214 | 0.0 | 0.0 | 0.00 | 0.03 | 0.03 | 99 | 1009.8 |
| 20260509105910 | 13 | 214 | 0.0 | 0.0 | 0.00 | 0.03 | 0.03 | 99 | 1009.8 |
| 20260509105408 | 13 | 214 | 0.0 | 0.0 | 0.00 | 0.03 | 0.03 | 99 | 1009.7 |
| 20260509104859 | 13 | 214 | 0.0 | 0.0 | 0.00 | 0.03 | 0.03 | 99 | 1009.7 |
| 20260509104356 | 13 | 214 | 0.0 | 0.0 | 0.00 | 0.03 | 0.03 | 99 | 1009.8 |
| 20260509103853 | 13 | 214 | 0.0 | 0.0 | 0.00 | 0.03 | 0.03 | 99 | 1010.1 |
| 20260509103350 | 14 | 214 | 0.0 | 0.0 | 0.00 | 0.03 | 0.03 | 99 | 1010.0 |
| 20260509102849 | 14 | 214 | 0.0 | 0.0 | 0.00 | 0.03 | 0.03 | 99 | 1009.9 |
| 20260509102346 | 14 | 214 | 0.0 | 0.0 | 0.00 | 0.03 | 0.03 | 99 | 1010.0 |
| 20260509101841 | 14 | 214 | 0.0 | 0.0 | 0.00 | 0.03 | 0.03 | 99 | 1009.9 |
| 20260509101338 | 13 | 214 | 0.0 | 0.0 | 0.00 | 0.03 | 0.03 | 99 | 1010.3 |
| 20260509100836 | 13 | 214 | 0.0 | 0.0 | 0.00 | 0.03 | 0.03 | 99 | 1010.3 |
| 20260509100333 | 14 | 214 | 0.0 | 0.0 | 0.00 | 0.03 | 0.03 | 99 | 1010.3 |
| 20260509095829 | 13 | 214 | 0.0 | 0.0 | 0.00 | 0.03 | 0.03 | 99 | 1010.3 |
| 20260509095327 | 13 | 214 | 0.0 | 0.0 | 0.00 | 0.03 | 0.03 | 99 | 1010.4 |
| 20260509094824 | 13 | 214 | 0.0 | 0.0 | 0.00 | 0.03 | 0.03 | 99 | 1010.5 |
| 20260509094320 | 13 | 214 | 0.0 | 0.0 | 0.00 | 0.03 | 0.03 | 99 | 1010.5 |
| 20260509093818 | 13 | 214 | 1.6 | 3.2 | 0.00 | 0.03 | 0.03 | 99 | 1010.6 |
| 20260509093315 | 13 | 215 | 0.0 | 0.0 | 0.00 | 0.03 | 0.03 | 99 | 1010.4 |
| 20260509092814 | 13 | 215 | 0.0 | 0.0 | 0.00 | 0.03 | 0.03 | 99 | 1010.4 |
| 20260509092311 | 13 | 215 | 0.0 | 0.0 | 0.00 | 0.03 | 0.03 | 99 | 1010.5 |
| 20260509091809 | 13 | 214 | 0.0 | 1.6 | 0.00 | 0.03 | 0.03 | 99 | 1010.3 |
| 20260509091305 | 13 | 214 | 0.0 | 0.0 | 0.00 | 0.03 | 0.03 | 99 | 1010.3 |
| 20260509090803 | 13 | 214 | 0.0 | 0.0 | 0.00 | 0.03 | 0.03 | 99 | 1010.4 |
| 20260509090300 | 14 | 215 | 0.0 | 0.0 | 0.00 | 0.03 | 0.03 | 99 | 1010.5 |
| 20260509085757 | 14 | 214 | 0.0 | 0.0 | 0.00 | 0.03 | 0.03 | 99 | 1010.6 |
| 20260509085255 | 13 | 213 | 0.0 | 0.0 | 0.00 | 0.03 | 0.03 | 99 | 1010.4 |
| 20260509084751 | 13 | 213 | 0.0 | 0.0 | 0.00 | 0.03 | 0.03 | 99 | 1010.4 |
| 20260509084248 | 13 | 213 | 0.0 | 0.0 | 0.00 | 0.03 | 0.03 | 99 | 1010.4 |
| 20260509083746 | 13 | 213 | 0.0 | 0.0 | 0.00 | 0.03 | 0.03 | 99 | 1010.4 |
| 20260509083242 | 14 | 213 | 0.0 | 0.0 | 0.00 | 0.03 | 0.03 | 99 | 1010.3 |
| 20260509082739 | 13 | 213 | 0.0 | 0.0 | 0.00 | 0.03 | 0.03 | 99 | 1010.3 |
| 20260509082235 | 13 | 213 | 0.0 | 0.0 | 0.00 | 0.03 | 0.03 | 99 | 1010.2 |
| 20260509081732 | 13 | 213 | 0.0 | 0.0 | 0.00 | 0.03 | 0.03 | 99 | 1010.4 |
| 20260509081230 | 13 | 213 | 0.0 | 0.0 | 0.00 | 0.03 | 0.03 | 99 | 1010.4 |
| 20260509080728 | 13 | 214 | 0.0 | 0.0 | 0.00 | 0.03 | 0.03 | 99 | 1010.5 |
| 20260509080225 | 13 | 216 | 0.0 | 0.0 | 0.00 | 0.03 | 0.03 | 99 | 1010.6 |
| 20260509075723 | 13 | 216 | 0.0 | 0.0 | 0.00 | 0.03 | 0.03 | 99 | 1010.8 |
| 20260509075221 | 13 | 216 | 0.0 | 0.0 | 0.00 | 0.03 | 0.03 | 99 | 1010.8 |
| 20260509074718 | 13 | 217 | 0.0 | 0.0 | 0.00 | 0.03 | 0.03 | 99 | 1010.8 |
| 20260509074215 | 13 | 217 | 0.0 | 0.0 | 0.00 | 0.03 | 0.03 | 99 | 1010.7 |
| 20260509073711 | 13 | 216 | 0.0 | 0.0 | 0.00 | 0.03 | 0.03 | 99 | 1010.9 |
| 20260509073208 | 13 | 216 | 0.0 | 0.0 | 0.00 | 0.03 | 0.03 | 99 | 1010.8 |
| 20260509072704 | 13 | 216 | 0.0 | 0.0 | 0.00 | 0.03 | 0.03 | 99 | 1010.9 |
| 20260509072201 | 13 | 216 | 0.0 | 0.0 | 0.00 | 0.03 | 0.03 | 99 | 1011.0 |
| 20260509071658 | 13 | 216 | 0.0 | 0.0 | 0.00 | 0.03 | 0.03 | 99 | 1011.0 |
| 20260509071155 | 13 | 217 | 0.0 | 0.0 | 0.00 | 0.03 | 0.03 | 99 | 1011.0 |
| 20260509070652 | 14 | 216 | 0.0 | 1.6 | 0.00 | 0.03 | 0.03 | 99 | 1010.9 |
| 20260509070148 | 14 | 206 | 0.0 | 0.0 | 0.00 | 0.03 | 0.03 | 99 | 1010.9 |
| 20260509065644 | 14 | 206 | 0.0 | 0.0 | 0.00 | 0.03 | 0.03 | 99 | 1010.8 |
| 20260509065140 | 14 | 205 | 0.0 | 0.0 | 0.00 | 0.03 | 0.03 | 99 | 1010.7 |
| 20260509064637 | 14 | 202 | 0.0 | 0.0 | 0.00 | 0.03 | 0.03 | 99 | 1010.7 |
| 20260509064135 | 13 | 208 | 0.0 | 0.0 | 0.00 | 0.03 | 0.03 | 99 | 1010.9 |
| 20260509063632 | 13 | 208 | 0.0 | 0.0 | 0.00 | 0.03 | 0.03 | 99 | 1011.0 |
| 20260509063128 | 14 | 208 | 0.0 | 0.0 | 0.00 | 0.03 | 0.03 | 99 | 1011.3 |
| 20260509062625 | 14 | 208 | 0.0 | 0.0 | 0.00 | 0.03 | 0.03 | 99 | 1011.0 |
| 20260509062117 | 14 | 207 | 0.0 | 0.0 | 0.00 | 0.03 | 0.03 | 99 | 1011.4 |
| 20260509061614 | 14 | 207 | 0.0 | 0.0 | 0.00 | 0.03 | 0.03 | 99 | 1011.4 |
| 20260509061111 | 14 | 207 | 0.0 | 0.0 | 0.00 | 0.03 | 0.03 | 99 | 1011.4 |
| 20260509060609 | 14 | 207 | 0.0 | 0.0 | 0.00 | 0.03 | 0.03 | 99 | 1011.2 |
| 20260509060104 | 14 | 207 | 0.0 | 0.0 | 0.00 | 0.03 | 0.03 | 99 | 1011.0 |
| 20260509055600 | 14 | 207 | 0.0 | 0.0 | 0.00 | 0.03 | 0.03 | 99 | 1011.4 |
| 20260509055056 | 15 | 208 | 0.0 | 0.0 | 0.00 | 0.03 | 0.03 | 99 | 1011.3 |
| 20260509054553 | 15 | 208 | 0.0 | 0.0 | 0.00 | 0.03 | 0.03 | 99 | 1011.4 |
| 20260509054051 | 15 | 208 | 0.0 | 0.0 | 0.18 | 0.03 | 0.03 | 99 | 1011.2 |
| 20260509053549 | 15 | 207 | 0.0 | 0.0 | 0.18 | 0.03 | 0.03 | 99 | 1011.3 |
| 20260509053046 | 15 | 199 | 0.0 | 0.0 | 0.00 | 0.00 | 0.00 | 99 | 1011.2 |
| 20260509052543 | 15 | 204 | 0.0 | 0.0 | 0.00 | 0.00 | 0.00 | 98 | 1011.3 |
| 20260509052042 | 15 | 204 | 0.0 | 0.0 | 0.00 | 0.00 | 0.00 | 98 | 1011.0 |
| 20260509051539 | 15 | 187 | 0.0 | 0.0 | 0.00 | 0.00 | 0.00 | 98 | 1010.9 |
| 20260509051036 | 15 | 196 | 0.0 | 0.0 | 0.00 | 0.00 | 0.00 | 98 | 1011.0 |
| 20260509050533 | 15 | 194 | 3.2 | 4.8 | 0.00 | 0.00 | 0.00 | 98 | 1010.9 |
| 20260509050029 | 15 | 196 | 1.6 | 1.6 | 0.00 | 0.43 | 0.43 | 98 | 1011.0 |
| 20260509045526 | 15 | 199 | 1.6 | 3.2 | 0.00 | 0.43 | 0.43 | 98 | 1010.8 |